Labuan Airport


Codes: WBKL/LBU
Name: Labuan Airport
City: Labuan
Country: Malaysia
Elevation: 101 ft.
Wikipedia:

Photos at Labuan Airport


   Photos courtesy of SpottingLog. You can add your own sightings and photos by signing up for a free trial today.



No photos found.

Weather at Labuan Airport


Time (UTC)DescriptionTempratureWindCloud coverageVisibilityPressureHumidity
16-Jun-2024 09:00Broken Clouds29°C4 mph, NW74%10000m1007hPa72%
16-Jun-2024 12:00Broken Clouds29°C7 mph, NW77%10000m1008hPa73%
16-Jun-2024 15:00Overcast Clouds29°C4 mph, NE91%10000m1008hPa74%
16-Jun-2024 18:00Broken Clouds28°C7 mph, E67%10000m1008hPa83%
16-Jun-2024 21:00Light Rain27°C4 mph, E37%10000m1008hPa82%
17-Jun-2024 00:00Light Rain27°C7 mph, E30%10000m1010hPa80%
17-Jun-2024 03:00Light Rain28°C2 mph, NE17%10000m1010hPa76%
17-Jun-2024 06:00Light Rain30°C9 mph, NW36%10000m1008hPa71%
17-Jun-2024 09:00Light Rain30°C9 mph, N95%10000m1008hPa70%
17-Jun-2024 12:00Light Rain30°C4 mph, N97%10000m1010hPa70%
17-Jun-2024 15:00Light Rain29°C2 mph, NE98%10000m1011hPa71%
17-Jun-2024 18:00Overcast Clouds29°C4 mph, E99%10000m1009hPa75%
17-Jun-2024 21:00Light Rain28°C4 mph, SE100%10000m1009hPa79%
18-Jun-2024 00:00Light Rain28°C4 mph, SE96%10000m1010hPa81%
18-Jun-2024 03:00Light Rain28°C2 mph, S100%10000m1010hPa78%
18-Jun-2024 06:00Light Rain29°C7 mph, NW97%10000m1008hPa75%
18-Jun-2024 09:00Light Rain29°C9 mph, NW42%6289m1007hPa75%
18-Jun-2024 12:00Light Rain28°C4 mph, NW70%10000m1009hPa75%
18-Jun-2024 15:00Light Rain28°C4 mph, SE100%10000m1010hPa75%
18-Jun-2024 18:00Light Rain27°C11 mph, SE100%10000m1009hPa81%
18-Jun-2024 21:00Light Rain27°C11 mph, SE100%10000m1009hPa77%
19-Jun-2024 00:00Overcast Clouds28°C4 mph, SE100%10000m1010hPa70%
19-Jun-2024 03:00Overcast Clouds28°C4 mph, S95%10000m1009hPa70%
19-Jun-2024 06:00Broken Clouds29°C7 mph, W83%10000m1007hPa69%
19-Jun-2024 09:00Broken Clouds29°C9 mph, W55%10000m1006hPa70%
19-Jun-2024 12:00Light Rain29°C7 mph, W50%10000m1008hPa73%
19-Jun-2024 15:00Light Rain29°C4 mph, W95%10000m1010hPa71%
19-Jun-2024 18:00Light Rain28°C7 mph, SW81%10000m1008hPa74%
19-Jun-2024 21:00Moderate Rain27°C7 mph, S97%4922m1008hPa78%
20-Jun-2024 00:00Light Rain28°C7 mph, SW98%10000m1009hPa72%
20-Jun-2024 03:00Light Rain28°C7 mph, SW99%10000m1010hPa74%
20-Jun-2024 06:00Light Rain29°C9 mph, W93%10000m1007hPa70%
20-Jun-2024 09:00Light Rain28°C9 mph, W84%5452m1007hPa76%
20-Jun-2024 12:00Moderate Rain29°C11 mph, W92%10000m1009hPa73%
20-Jun-2024 15:00Moderate Rain27°C11 mph, SW100%8836m1010hPa84%
20-Jun-2024 18:00Moderate Rain25°C9 mph, W100%3247m1009hPa92%
20-Jun-2024 21:00Heavy Intensity Rain26°C7 mph, W100%10000m1009hPa87%
21-Jun-2024 00:00Light Rain26°C4 mph, W100%10000m1010hPa85%
21-Jun-2024 03:00Overcast Clouds27°C4 mph, SW98%10000m1010hPa81%
21-Jun-2024 06:00Overcast Clouds28°C9 mph, W99%10000m1008hPa76%